Time;durP1;ratioP1;P1;durP2;ratioP2;P2;SDS_P1;SDS_P2;PMS_P1;PMS_P2;Temp;Humidity;BMP_temperature;BMP_pressure;BME280_temperature;BME280_humidity;BME280_pressure;Samples;Min_cycle;Max_cycle;Signal;HPM_P1;HPM_P2
2023/01/10 00:00:33;;;;;;;19.63;3.22;;;5.10;99.90;;;;;;5034407;28;20514;-69
2023/01/10 00:03:10;;;;;;;18.27;3.60;;;5.20;99.90;;;;;;5053067;28;20033;-69
2023/01/10 00:05:38;;;;;;;20.73;4.85;;;5.10;99.90;;;;;;5035073;28;20091;-69
2023/01/10 00:08:11;;;;;;;26.58;5.40;;;5.20;99.90;;;;;;5034385;28;20563;-69
2023/01/10 00:10:37;;;;;;;22.02;3.53;;;5.30;99.90;;;;;;5035001;28;20056;-69
2023/01/10 00:13:24;;;;;;;13.68;3.10;;;5.30;99.90;;;;;;5052796;28;20041;-69
2023/01/10 00:15:51;;;;;;;15.35;3.47;;;5.40;99.90;;;;;;5052205;28;20449;-69
2023/01/10 00:18:23;;;;;;;15.98;3.33;;;5.40;99.90;;;;;;5034723;28;20035;-69
2023/01/10 00:20:49;;;;;;;17.67;3.78;;;5.50;99.90;;;;;;5018609;28;20409;-69
2023/01/10 00:23:22;;;;;;;14.38;3.72;;;5.50;99.90;;;;;;5034959;28;20049;-69
2023/01/10 00:25:48;;;;;;;23.23;6.63;;;5.60;99.90;;;;;;5034623;28;20470;-70
2023/01/10 00:28:22;;;;;;;18.25;3.90;;;5.60;99.90;;;;;;5052010;28;20041;-69
2023/01/10 00:31:05;;;;;;;18.08;3.95;;;5.60;99.90;;;;;;5052359;28;20036;-69
2023/01/10 00:33:41;;;;;;;18.20;3.92;;;5.60;99.90;;;;;;5052611;28;20045;-69
2023/01/10 00:36:09;;;;;;;21.65;4.93;;;5.60;99.90;;;;;;5051832;28;20497;-69
2023/01/10 00:38:41;;;;;;;21.25;3.90;;;5.60;99.90;;;;;;5053764;28;20401;-69
2023/01/10 00:44:11;;;;;;;16.75;3.60;;;5.70;99.90;;;;;;5033724;28;20489;-69
2023/01/10 00:46:37;;;;;;;28.60;5.57;;;5.70;99.90;;;;;;5034685;28;20624;-69
2023/01/10 00:49:15;;;;;;;19.52;4.18;;;5.80;99.90;;;;;;5051609;28;20037;-69
2023/01/10 00:51:43;;;;;;;16.20;4.03;;;5.90;99.90;;;;;;5051930;28;20154;-69
2023/01/10 00:54:16;;;;;;;16.67;3.83;;;5.90;99.90;;;;;;5052103;28;20084;-69
2023/01/10 00:56:48;;;;;;;12.43;4.10;;;6.00;99.90;;;;;;5033529;28;20033;-69
2023/01/10 00:59:14;;;;;;;13.35;3.38;;;6.00;99.90;;;;;;5051860;28;20045;-69
2023/01/10 01:01:46;;;;;;;16.75;4.38;;;6.00;99.90;;;;;;5034211;28;20090;-69
2023/01/10 01:04:12;;;;;;;16.08;2.70;;;6.10;99.90;;;;;;5051280;28;20478;-69
2023/01/10 01:06:52;;;;;;;13.73;2.85;;;6.10;99.90;;;;;;5051917;28;20037;-69
2023/01/10 01:09:18;;;;;;;13.23;3.25;;;6.20;99.90;;;;;;5034139;28;20389;-70
2023/01/10 01:11:50;;;;;;;14.57;3.58;;;6.10;99.90;;;;;;5051240;28;20067;-69
2023/01/10 01:14:16;;;;;;;12.90;3.50;;;6.10;99.90;;;;;;5034054;28;20045;-69
2023/01/10 01:16:48;;;;;;;17.33;3.20;;;6.10;99.90;;;;;;5017095;28;20044;-69
2023/01/10 01:19:14;;;;;;;13.73;3.00;;;6.10;99.90;;;;;;5051221;28;20033;-69
2023/01/10 01:21:46;;;;;;;21.23;3.30;;;6.10;99.90;;;;;;5033893;28;20511;-69
2023/01/10 01:24:12;;;;;;;11.60;3.05;;;6.00;99.90;;;;;;5033255;28;20123;-69
2023/01/10 01:26:38;;;;;;;17.02;2.97;;;6.00;99.90;;;;;;5051422;28;20502;-69
2023/01/10 01:29:11;;;;;;;11.40;2.78;;;6.00;99.90;;;;;;5033559;28;20112;-69
2023/01/10 01:31:37;;;;;;;21.00;4.75;;;6.00;99.90;;;;;;5032905;28;20128;-69
2023/01/10 01:34:09;;;;;;;15.88;3.22;;;6.10;99.90;;;;;;5033715;28;20124;-69
2023/01/10 01:36:35;;;;;;;22.92;4.80;;;6.10;99.90;;;;;;5051352;28;20068;-69
2023/01/10 01:39:07;;;;;;;20.08;3.13;;;6.10;99.90;;;;;;5051939;28;20111;-69
2023/01/10 01:41:56;;;;;;;22.38;3.20;;;6.10;99.90;;;;;;5017723;28;20048;-69
2023/01/10 01:44:23;;;;;;;13.88;2.95;;;6.20;99.90;;;;;;5051486;28;20126;-69
2023/01/10 01:47:09;;;;;;;19.40;4.25;;;6.20;99.90;;;;;;5032951;28;20048;-69
2023/01/10 01:49:39;;;;;;;22.15;5.13;;;6.30;99.90;;;;;;5016945;28;20052;-69
2023/01/10 01:52:19;;;;;;;15.25;3.13;;;6.40;99.90;;;;;;5050165;28;20052;-69
2023/01/10 01:54:45;;;;;;;14.20;2.13;;;6.40;99.90;;;;;;5051359;28;20045;-69
2023/01/10 01:57:23;;;;;;;9.40;2.15;;;6.40;99.90;;;;;;5033395;28;20460;-69
2023/01/10 01:59:52;;;;;;;19.02;3.17;;;6.30;99.90;;;;;;5033018;28;20158;-69
2023/01/10 02:02:37;;;;;;;15.30;3.13;;;6.30;99.90;;;;;;5033002;28;20044;-69
2023/01/10 02:05:07;;;;;;;14.30;2.47;;;6.30;99.90;;;;;;5051115;28;20033;-70
2023/01/10 02:07:44;;;;;;;16.17;2.40;;;6.30;99.90;;;;;;5049840;28;20045;-70
2023/01/10 02:10:14;;;;;;;18.90;3.17;;;6.30;99.90;;;;;;5050903;28;20080;-69
2023/01/10 02:12:48;;;;;;;17.17;3.42;;;6.30;99.90;;;;;;5032817;28;20098;-69
2023/01/10 02:15:16;;;;;;;14.50;3.63;;;6.30;99.90;;;;;;5050515;28;20037;-70
2023/01/10 02:17:56;;;;;;;12.80;2.25;;;6.40;99.90;;;;;;5050864;28;20040;-70
2023/01/10 02:20:22;;;;;;;16.88;2.92;;;6.30;99.90;;;;;;5050216;28;20040;-69
2023/01/10 02:23:16;;;;;;;17.48;2.78;;;6.40;99.90;;;;;;5050847;28;20381;-70
2023/01/10 02:26:09;;;;;;;14.38;2.88;;;6.40;99.90;;;;;;5050720;28;20489;-70
2023/01/10 02:28:52;;;;;;;15.88;3.70;;;6.50;99.90;;;;;;5032190;28;20056;-70
2023/01/10 02:32:13;;;;;;;16.67;4.13;;;6.50;99.90;;;;;;5067848;28;20099;-70
2023/01/10 02:35:04;;;;;;;20.42;4.45;;;6.50;99.90;;;;;;5035587;28;20052;-69
2023/01/10 02:37:49;;;;;;;20.27;3.30;;;6.50;99.90;;;;;;5052594;28;20047;-70
2023/01/10 02:40:41;;;;;;;10.60;2.47;;;6.50;99.90;;;;;;5032422;28;20056;-70
2023/01/10 02:43:51;;;;;;;13.38;2.65;;;6.50;99.90;;;;;;5032088;28;20041;-70
2023/01/10 02:46:24;;;;;;;13.07;2.95;;;6.40;99.90;;;;;;5021647;28;20041;-70
2023/01/10 02:49:00;;;;;;;14.65;3.63;;;6.40;99.90;;;;;;5032261;28;20124;-69
2023/01/10 02:51:28;;;;;;;20.05;3.15;;;6.40;99.90;;;;;;5032559;28;20079;-70
2023/01/10 02:54:09;;;;;;;14.85;3.30;;;6.40;99.90;;;;;;5032430;28;20044;-70
2023/01/10 02:57:10;;;;;;;12.82;3.10;;;6.40;99.90;;;;;;5031916;28;20057;-70
2023/01/10 02:59:50;;;;;;;25.05;3.85;;;6.50;99.90;;;;;;5016188;28;20037;-70
2023/01/10 03:03:10;;;;;;;18.08;4.07;;;6.40;99.90;;;;;;5049993;28;20048;-69
2023/01/10 03:05:48;;;;;;;17.85;2.83;;;6.50;99.90;;;;;;5018857;28;20048;-69
2023/01/10 03:08:26;;;;;;;13.00;2.63;;;6.50;99.90;;;;;;5050364;28;20076;-69
2023/01/10 03:10:57;;;;;;;17.83;3.15;;;6.50;99.90;;;;;;5049656;28;20041;-69
2023/01/10 03:13:41;;;;;;;20.73;3.45;;;6.50;99.90;;;;;;5050196;28;20051;-69
2023/01/10 03:16:12;;;;;;;14.63;2.90;;;6.50;99.90;;;;;;5031978;28;20056;-69
2023/01/10 03:19:02;;;;;;;17.42;3.60;;;6.50;99.90;;;;;;5015757;28;20396;-69
2023/01/10 03:21:30;;;;;;;26.73;4.43;;;6.50;99.90;;;;;;5053965;28;20048;-70
2023/01/10 03:24:24;;;;;;;19.95;3.45;;;6.50;99.90;;;;;;5053304;28;20092;-69
2023/01/10 03:27:12;;;;;;;18.73;4.68;;;6.50;99.90;;;;;;5036034;28;20037;-69
2023/01/10 03:30:01;;;;;;;13.68;3.25;;;6.50;99.90;;;;;;5053912;28;20029;-69
2023/01/10 03:32:35;;;;;;;18.58;3.95;;;6.50;99.90;;;;;;5052516;28;20036;-69
2023/01/10 03:35:02;;;;;;;20.77;4.05;;;6.60;99.90;;;;;;5052675;28;20044;-69
2023/01/10 03:37:53;;;;;;;20.67;3.75;;;6.50;99.90;;;;;;5051816;28;20606;-69
2023/01/10 03:40:44;;;;;;;22.27;3.80;;;6.60;99.90;;;;;;5072157;28;20051;-70
2023/01/10 03:46:22;;;;;;;17.10;3.35;;;6.50;99.90;;;;;;5053734;28;20051;-70
2023/01/10 03:48:55;;;;;;;17.30;3.70;;;6.50;99.90;;;;;;5054306;28;20114;-70
2023/01/10 03:51:21;;;;;;;18.73;5.22;;;6.50;99.90;;;;;;5053795;28;20094;-70
2023/01/10 03:53:53;;;;;;;17.58;3.28;;;6.50;99.90;;;;;;5054256;28;20044;-70
2023/01/10 03:56:19;;;;;;;19.73;4.30;;;6.60;99.90;;;;;;5072271;28;20040;-70
2023/01/10 03:58:51;;;;;;;25.65;5.30;;;6.60;99.90;;;;;;5071509;28;20040;-70
2023/01/10 04:01:17;;;;;;;18.70;3.72;;;6.60;99.90;;;;;;5071951;28;20044;-70
2023/01/10 04:03:50;;;;;;;18.70;3.70;;;6.60;99.90;;;;;;5072194;28;20456;-70
2023/01/10 04:06:16;;;;;;;22.70;4.43;;;6.50;99.90;;;;;;5071288;28;20048;-70
2023/01/10 04:08:48;;;;;;;24.30;4.43;;;6.50;99.90;;;;;;5054112;28;20769;-70
2023/01/10 04:11:14;;;;;;;25.13;4.30;;;6.40;99.90;;;;;;5054021;28;20040;-70
2023/01/10 04:13:47;;;;;;;18.88;4.07;;;6.40;99.90;;;;;;5071234;28;20472;-70
2023/01/10 04:16:13;;;;;;;24.55;4.10;;;6.40;99.90;;;;;;5054151;28;20123;-70
2023/01/10 04:18:45;;;;;;;19.35;4.22;;;6.30;99.90;;;;;;5053684;28;20128;-68
2023/01/10 04:21:18;;;;;;;23.60;4.80;;;6.30;99.90;;;;;;5071178;28;20053;-67
2023/01/10 04:23:50;;;;;;;21.27;5.28;;;6.30;99.90;;;;;;5053830;28;20147;-68
2023/01/10 04:26:16;;;;;;;18.33;4.35;;;6.30;99.90;;;;;;5071041;28;20048;-67
2023/01/10 04:28:48;;;;;;;29.88;4.40;;;6.30;99.90;;;;;;5071641;28;20393;-68
2023/01/10 04:31:14;;;;;;;21.83;4.63;;;6.30;99.90;;;;;;5053228;28;20055;-68
2023/01/10 04:33:46;;;;;;;26.63;5.00;;;6.30;99.90;;;;;;5052915;28;20044;-68
2023/01/10 04:36:12;;;;;;;33.05;4.78;;;6.30;99.90;;;;;;5053299;28;20051;-68
2023/01/10 04:38:44;;;;;;;21.17;5.07;;;6.30;99.90;;;;;;5053793;28;20048;-68
2023/01/10 04:41:23;;;;;;;23.70;4.25;;;6.20;99.90;;;;;;5037092;28;20056;-69
2023/01/10 04:43:56;;;;;;;20.33;5.78;;;6.10;99.90;;;;;;5071301;28;20507;-68
2023/01/10 04:46:22;;;;;;;26.50;5.03;;;6.10;99.90;;;;;;5071399;28;20043;-68
2023/01/10 04:48:54;;;;;;;15.73;4.20;;;6.10;99.90;;;;;;5052979;28;20041;-69
2023/01/10 04:51:20;;;;;;;25.17;4.03;;;6.10;99.90;;;;;;5070910;28;20079;-68
2023/01/10 04:53:53;;;;;;;23.13;3.88;;;6.10;99.90;;;;;;5071018;28;20037;-68
2023/01/10 04:56:20;;;;;;;17.00;3.75;;;6.10;99.90;;;;;;5071179;28;20075;-68
2023/01/10 04:58:53;;;;;;;13.68;3.42;;;6.20;99.90;;;;;;5053007;28;20044;-68
2023/01/10 05:01:24;;;;;;;16.20;3.38;;;6.30;99.90;;;;;;5070422;28;20459;-69
2023/01/10 05:03:59;;;;;;;17.60;4.50;;;6.30;99.90;;;;;;5053009;28;20029;-68
2023/01/10 05:06:25;;;;;;;17.02;4.25;;;6.40;99.90;;;;;;5071000;28;20524;-68
2023/01/10 05:08:57;;;;;;;12.57;3.10;;;6.40;99.90;;;;;;5052230;28;20037;-69
2023/01/10 05:11:23;;;;;;;20.85;4.25;;;6.50;99.90;;;;;;5070827;28;20044;-70
2023/01/10 05:13:56;;;;;;;14.32;3.83;;;6.50;99.90;;;;;;5052748;28;20049;-69
2023/01/10 05:16:24;;;;;;;19.70;5.05;;;6.50;99.90;;;;;;5052067;28;20044;-70
2023/01/10 05:19:03;;;;;;;17.77;3.53;;;6.60;99.90;;;;;;5052552;28;20048;-69
2023/01/10 05:21:29;;;;;;;13.63;3.10;;;6.60;99.90;;;;;;5052515;28;20041;-70
2023/01/10 05:24:01;;;;;;;9.35;2.13;;;6.50;99.90;;;;;;5069915;28;20040;-70
2023/01/10 05:26:27;;;;;;;7.80;1.90;;;6.50;99.90;;;;;;5070807;28;20092;-68
2023/01/10 05:28:59;;;;;;;10.77;2.25;;;6.50;99.90;;;;;;5070029;28;20135;-71
2023/01/10 05:31:25;;;;;;;5.28;1.70;;;6.50;99.90;;;;;;5035770;28;20531;-70
2023/01/10 05:33:57;;;;;;;10.02;2.20;;;6.40;99.90;;;;;;5052630;28;20032;-72
2023/01/10 05:36:23;;;;;;;10.13;2.05;;;6.40;99.90;;;;;;5052157;28;20048;-71
2023/01/10 05:38:55;;;;;;;14.20;3.03;;;6.40;99.90;;;;;;5065577;28;20409;-71
2023/01/10 05:41:34;;;;;;;18.83;4.57;;;6.40;99.90;;;;;;5032186;28;20068;-71
2023/01/10 05:44:07;;;;;;;13.35;2.75;;;6.40;99.90;;;;;;5031461;28;20049;-73
2023/01/10 05:46:33;;;;;;;17.73;3.58;;;6.40;99.90;;;;;;5032248;28;20097;-70
2023/01/10 05:49:05;;;;;;;13.25;2.75;;;6.40;99.90;;;;;;5049844;28;20044;-71
2023/01/10 05:51:31;;;;;;;19.27;3.45;;;6.30;99.90;;;;;;5031700;28;20051;-71
2023/01/10 05:54:03;;;;;;;12.68;3.78;;;6.30;99.90;;;;;;5032371;28;20045;-72
2023/01/10 05:56:29;;;;;;;16.48;3.03;;;6.20;99.90;;;;;;5015875;28;20120;-72
2023/01/10 05:59:01;;;;;;;24.15;3.42;;;6.20;99.90;;;;;;5031382;28;20137;-71
2023/01/10 06:01:27;;;;;;;17.83;3.75;;;6.10;99.90;;;;;;5031941;28;20556;-71
2023/01/10 06:03:59;;;;;;;11.75;3.42;;;6.00;99.90;;;;;;5031613;28;20123;-71
2023/01/10 06:06:25;;;;;;;14.20;3.78;;;5.90;99.90;;;;;;5032674;28;20049;-70
2023/01/10 06:08:58;;;;;;;18.38;3.97;;;5.70;99.90;;;;;;5032998;28;20469;-70
2023/01/10 06:11:35;;;;;;;15.07;5.05;;;5.60;99.90;;;;;;5050472;28;20037;-70
2023/01/10 06:14:09;;;;;;;23.58;4.43;;;5.40;99.90;;;;;;5033014;28;20049;-70
2023/01/10 06:16:34;;;;;;;26.20;4.45;;;5.30;99.90;;;;;;5033058;28;20040;-71
2023/01/10 06:19:08;;;;;;;26.88;4.60;;;5.30;99.90;;;;;;5050321;28;20075;-72
2023/01/10 06:21:34;;;;;;;27.40;5.38;;;5.10;99.90;;;;;;5016352;28;20044;-71
2023/01/10 06:24:06;;;;;;;29.15;6.15;;;5.00;99.90;;;;;;5032797;28;20044;-72
2023/01/10 06:26:32;;;;;;;28.30;6.95;;;4.90;99.90;;;;;;5032434;28;20090;-69
2023/01/10 06:29:04;;;;;;;28.98;6.63;;;4.90;99.90;;;;;;5016541;28;20604;-71
2023/01/10 06:31:30;;;;;;;22.27;7.15;;;4.80;99.90;;;;;;5033001;28;20378;-71
2023/01/10 06:34:02;;;;;;;21.73;6.35;;;4.70;99.90;;;;;;5032076;28;20052;-71
2023/01/10 06:36:28;;;;;;;24.58;7.18;;;4.60;99.90;;;;;;5050612;28;20040;-71
2023/01/10 06:39:00;;;;;;;30.60;7.38;;;4.60;99.90;;;;;;5038634;28;20393;-70
2023/01/10 06:41:39;;;;;;;30.52;6.18;;;4.60;99.90;;;;;;5070312;28;20041;-70
2023/01/10 06:44:12;;;;;;;32.72;6.72;;;4.70;99.90;;;;;;5052463;28;20486;-71
2023/01/10 06:46:38;;;;;;;35.03;7.95;;;4.70;99.90;;;;;;5069914;28;20476;-71
2023/01/10 06:49:11;;;;;;;31.20;7.43;;;4.80;99.90;;;;;;5052393;28;20042;-71
2023/01/10 06:51:43;;;;;;;31.23;6.88;;;4.90;99.90;;;;;;5052348;28;20051;-71
2023/01/10 06:54:16;;;;;;;31.88;6.35;;;5.10;99.90;;;;;;5054375;28;20393;-71
2023/01/10 06:56:41;;;;;;;33.22;8.00;;;5.20;99.90;;;;;;5056341;28;20519;-71
2023/01/10 06:59:14;;;;;;;23.70;6.65;;;5.30;99.90;;;;;;5056435;28;20040;-71
2023/01/10 07:01:46;;;;;;;26.67;6.38;;;5.40;99.90;;;;;;5074007;28;20076;-69
2023/01/10 07:04:12;;;;;;;27.80;6.57;;;5.40;99.90;;;;;;5040010;28;20090;-69
2023/01/10 07:06:50;;;;;;;34.17;9.10;;;5.50;99.90;;;;;;5056433;28;20598;-69
2023/01/10 07:09:16;;;;;;;28.52;7.40;;;5.50;99.90;;;;;;5074146;28;20529;-69
2023/01/10 07:11:41;;;;;;;29.25;7.40;;;5.50;99.90;;;;;;5074229;28;20040;-69
2023/01/10 07:14:14;;;;;;;39.75;14.80;;;5.50;99.90;;;;;;5055542;28;20047;-69
2023/01/10 07:16:46;;;;;;;31.42;9.63;;;5.60;99.90;;;;;;5055966;28;20044;-69
2023/01/10 07:19:16;;;;;;;35.60;7.07;;;5.60;99.90;;;;;;5056324;28;20033;-69
2023/01/10 07:21:42;;;;;;;22.63;6.00;;;5.50;99.90;;;;;;5039227;28;20076;-69
2023/01/10 07:24:15;;;;;;;26.05;5.30;;;5.50;99.90;;;;;;5074032;28;20028;-69
2023/01/10 07:26:41;;;;;;;25.00;4.93;;;5.40;99.90;;;;;;5055900;28;20051;-68
2023/01/10 07:29:13;;;;;;;21.67;5.60;;;5.30;99.90;;;;;;5055278;28;20064;-68
2023/01/10 07:31:39;;;;;;;27.25;5.68;;;5.30;99.90;;;;;;5055789;28;20037;-68
2023/01/10 07:34:11;;;;;;;22.00;5.15;;;5.20;99.90;;;;;;5055771;28;20032;-68
2023/01/10 07:36:37;;;;;;;31.65;5.28;;;5.10;99.90;;;;;;5073383;28;20037;-68
2023/01/10 07:39:09;;;;;;;24.45;5.53;;;5.10;99.90;;;;;;5056395;28;20131;-69
2023/01/10 07:41:56;;;;;;;32.72;6.10;;;5.10;99.90;;;;;;5073579;28;20037;-68
2023/01/10 07:44:22;;;;;;;29.83;5.43;;;5.20;99.90;;;;;;5055982;28;20036;-68
2023/01/10 07:46:55;;;;;;;23.05;4.70;;;5.20;99.90;;;;;;5039244;28;20036;-69
2023/01/10 07:49:20;;;;;;;23.45;5.28;;;5.20;99.90;;;;;;5047624;28;20072;-68
2023/01/10 07:51:53;;;;;;;24.60;4.63;;;5.20;99.90;;;;;;5073092;28;20075;-68
2023/01/10 07:54:19;;;;;;;25.85;5.10;;;5.10;99.90;;;;;;5055486;28;20040;-68
2023/01/10 07:56:52;;;;;;;28.25;5.57;;;5.10;99.90;;;;;;5054509;28;20048;-71
2023/01/10 07:59:24;;;;;;;24.75;4.90;;;5.10;99.90;;;;;;5055451;28;20093;-71
2023/01/10 08:01:57;;;;;;;26.67;6.18;;;5.10;99.90;;;;;;5073304;28;20102;-71
2023/01/10 08:04:23;;;;;;;30.60;5.13;;;5.10;99.90;;;;;;5071337;28;20037;-71
2023/01/10 08:06:55;;;;;;;30.13;5.57;;;5.10;99.90;;;;;;5071060;28;20447;-71
2023/01/10 08:09:21;;;;;;;21.08;5.70;;;5.10;99.90;;;;;;5071583;28;20036;-70
2023/01/10 08:11:53;;;;;;;22.80;5.50;;;5.20;99.90;;;;;;5053912;28;20114;-71
2023/01/10 08:14:19;;;;;;;20.42;5.32;;;5.30;99.90;;;;;;5071847;28;20102;-70
2023/01/10 08:16:51;;;;;;;25.50;8.00;;;5.30;99.90;;;;;;5037042;28;20044;-71
2023/01/10 08:19:17;;;;;;;18.70;5.13;;;5.30;99.90;;;;;;5053859;28;20044;-71
2023/01/10 08:21:43;;;;;;;35.60;5.63;;;5.40;99.90;;;;;;5054041;28;20041;-71
2023/01/10 08:24:16;;;;;;;25.55;6.47;;;5.50;99.90;;;;;;5053498;28;20032;-71
2023/01/10 08:26:41;;;;;;;27.80;6.25;;;5.50;99.90;;;;;;5071666;28;20400;-71
2023/01/10 08:29:14;;;;;;;24.75;5.68;;;5.60;99.90;;;;;;5053875;28;20044;-71
2023/01/10 08:31:47;;;;;;;26.63;4.90;;;5.70;99.90;;;;;;5052570;28;20684;-71
2023/01/10 08:34:13;;;;;;;15.85;4.18;;;5.80;99.90;;;;;;5052248;28;20052;-71
2023/01/10 08:36:46;;;;;;;14.30;4.30;;;5.90;99.90;;;;;;5070595;28;20103;-69
2023/01/10 08:39:12;;;;;;;16.23;4.50;;;5.90;99.90;;;;;;5036102;28;20088;-69
2023/01/10 08:41:58;;;;;;;20.02;4.25;;;6.00;99.90;;;;;;5031114;28;20040;-69
2023/01/10 08:44:25;;;;;;;15.45;4.32;;;6.10;99.90;;;;;;5072518;28;20544;-69
2023/01/10 08:46:58;;;;;;;17.48;4.70;;;6.20;99.90;;;;;;5071882;28;20040;-68
2023/01/10 08:49:24;;;;;;;14.52;3.67;;;6.30;99.90;;;;;;5053383;28;20043;-68
2023/01/10 08:51:56;;;;;;;20.95;4.43;;;6.30;99.90;;;;;;5070657;28;20032;-68
2023/01/10 08:54:29;;;;;;;16.67;5.55;;;6.40;99.90;;;;;;5072545;28;20494;-68
2023/01/10 08:57:01;;;;;;;15.95;3.42;;;6.40;99.90;;;;;;5054148;28;20086;-68
2023/01/10 08:59:26;;;;;;;23.83;4.90;;;6.40;99.90;;;;;;5052207;28;20488;-68
2023/01/10 09:01:59;;;;;;;15.63;4.78;;;6.40;99.90;;;;;;5072221;28;20119;-70
2023/01/10 09:04:27;;;;;;;18.38;3.58;;;6.30;99.90;;;;;;5072044;28;20056;-70
2023/01/10 09:07:00;;;;;;;21.48;5.20;;;6.30;99.90;;;;;;5071011;28;20036;-69
2023/01/10 09:09:25;;;;;;;12.25;3.70;;;6.40;99.90;;;;;;5052754;28;20032;-70
2023/01/10 09:11:58;;;;;;;14.43;3.72;;;6.40;99.90;;;;;;5069838;28;20090;-70
2023/01/10 09:14:24;;;;;;;20.73;4.43;;;6.70;99.90;;;;;;5053331;28;20090;-70
2023/01/10 09:16:56;;;;;;;23.65;4.30;;;7.10;99.90;;;;;;5070467;28;20032;-70
2023/01/10 09:19:22;;;;;;;17.80;3.97;;;7.50;99.90;;;;;;5053735;28;20098;-70
2023/01/10 09:21:55;;;;;;;15.93;3.50;;;7.90;99.90;;;;;;5051900;28;20032;-70
2023/01/10 09:24:21;;;;;;;19.63;5.00;;;8.10;99.90;;;;;;5053426;28;20044;-70
2023/01/10 09:26:54;;;;;;;20.50;4.35;;;8.00;99.90;;;;;;5037503;28;20085;-69
2023/01/10 09:29:23;;;;;;;15.80;3.92;;;7.80;99.90;;;;;;5052374;28;20388;-68
2023/01/10 09:31:55;;;;;;;21.45;3.88;;;7.60;99.90;;;;;;5070435;28;20036;-69
2023/01/10 09:34:21;;;;;;;16.75;3.63;;;7.50;99.90;;;;;;5070672;28;20036;-69
2023/01/10 09:36:54;;;;;;;16.55;3.42;;;7.30;99.90;;;;;;5071124;28;20420;-69
2023/01/10 09:39:20;;;;;;;20.15;4.95;;;7.20;99.90;;;;;;5053100;28;20057;-69
2023/01/10 09:42:28;;;;;;;16.55;4.13;;;7.30;99.90;;;;;;5070768;28;20051;-69
2023/01/10 09:45:34;;;;;;;17.23;3.88;;;7.30;99.90;;;;;;5053221;28;20041;-69
2023/01/10 09:48:26;;;;;;;19.10;3.88;;;7.30;99.90;;;;;;5052754;28;20081;-69
2023/01/10 09:51:31;;;;;;;22.23;4.15;;;7.30;99.90;;;;;;5053408;28;20075;-69
2023/01/10 09:54:06;;;;;;;23.60;5.43;;;7.30;99.90;;;;;;5052240;28;20052;-69
2023/01/10 09:56:33;;;;;;;19.80;4.55;;;7.20;99.90;;;;;;5052762;28;20043;-69
2023/01/10 09:59:06;;;;;;;25.02;3.70;;;7.20;99.90;;;;;;5070987;28;20044;-69
2023/01/10 10:01:36;;;;;;;17.95;3.85;;;7.20;99.90;;;;;;5070945;28;20111;-69
2023/01/10 10:04:27;;;;;;;19.65;4.32;;;7.20;99.90;;;;;;5051223;28;20043;-68
2023/01/10 10:07:00;;;;;;;18.00;5.10;;;7.20;99.90;;;;;;5070120;28;20033;-70
2023/01/10 10:09:34;;;;;;;18.90;4.10;;;7.20;99.90;;;;;;5071864;28;20047;-72
2023/01/10 10:12:31;;;;;;;23.02;5.22;;;7.10;99.90;;;;;;5052674;28;20125;-71
2023/01/10 10:15:36;;;;;;;19.65;5.55;;;7.10;99.90;;;;;;5052788;28;20043;-74
2023/01/10 10:18:35;;;;;;;20.35;4.57;;;7.10;99.90;;;;;;4987082;28;20139;-73
2023/01/10 10:21:52;;;;;;;17.42;4.18;;;7.10;99.90;;;;;;5070516;28;20051;-74
2023/01/10 10:24:56;;;;;;;25.10;4.63;;;7.10;99.90;;;;;;5070040;28;20527;-73
2023/01/10 10:27:39;;;;;;;25.52;5.63;;;7.20;99.90;;;;;;5031984;28;20040;-73
2023/01/10 10:30:18;;;;;;;21.60;4.72;;;7.10;99.90;;;;;;5052104;28;20036;-73
2023/01/10 10:32:50;;;;;;;21.55;5.80;;;7.20;99.90;;;;;;5070606;28;20542;-73
2023/01/10 10:35:38;;;;;;;22.20;5.47;;;7.20;99.90;;;;;;5052660;28;20120;-74
2023/01/10 10:38:24;;;;;;;24.02;7.05;;;7.20;99.90;;;;;;5050649;28;20074;-72
2023/01/10 10:41:24;;;;;;;30.40;6.38;;;7.20;99.90;;;;;;5065948;28;20903;-73
2023/01/10 10:44:06;;;;;;;18.67;6.20;;;7.20;99.90;;;;;;5031989;28;20528;-74
2023/01/10 10:46:32;;;;;;;21.23;5.55;;;7.20;99.90;;;;;;5048983;28;20040;-70
2023/01/10 10:49:39;;;;;;;16.08;5.70;;;7.20;99.90;;;;;;5050088;28;20048;-74
2023/01/10 10:52:39;;;;;;;28.40;6.70;;;7.10;99.90;;;;;;5049793;28;20053;-74
2023/01/10 10:55:11;;;;;;;20.35;6.05;;;7.10;99.90;;;;;;5049380;28;20215;-74
2023/01/10 10:57:46;;;;;;;23.95;6.75;;;7.10;99.90;;;;;;5052875;28;20045;-73
2023/01/10 11:00:21;;;;;;;22.73;5.78;;;7.10;99.90;;;;;;5037267;28;20469;-74
2023/01/10 11:03:38;;;;;;;29.15;6.18;;;7.10;99.90;;;;;;5043837;28;20036;-73
2023/01/10 11:06:10;;;;;;;24.58;6.22;;;7.00;99.90;;;;;;5031913;28;20037;-74
2023/01/10 11:08:48;;;;;;;23.90;5.68;;;7.00;99.90;;;;;;5027842;28;20063;-74
2023/01/10 11:11:37;;;;;;;26.02;7.75;;;7.00;99.90;;;;;;5069761;28;20091;-71
2023/01/10 11:14:14;;;;;;;25.13;6.47;;;7.00;99.90;;;;;;5022529;28;20113;-70
2023/01/10 11:17:39;;;;;;;23.25;7.57;;;6.90;99.90;;;;;;5049196;28;20076;-70
2023/01/10 11:20:18;;;;;;;20.83;7.88;;;6.90;99.90;;;;;;5048733;28;20120;-66
2023/01/10 11:22:59;;;;;;;15.50;6.05;;;6.90;99.90;;;;;;5024990;28;20153;-70
2023/01/10 11:25:25;;;;;;;;;;;6.80;99.90;;;;;;5034804;28;20671;-70
2023/01/10 11:28:06;;;;;;;14.25;6.13;;;6.80;99.90;;;;;;5068764;28;20007;-69
2023/01/10 11:30:37;;;;;;;27.55;6.45;;;6.80;99.90;;;;;;5023088;28;20048;-69
2023/01/10 11:33:27;;;;;;;20.30;6.75;;;6.70;99.90;;;;;;5005847;28;20087;-71
2023/01/10 11:36:09;;;;;;;31.65;7.30;;;6.70;99.90;;;;;;5027375;28;20099;-70
2023/01/10 11:38:44;;;;;;;22.92;5.68;;;6.70;99.90;;;;;;5030467;28;20480;-71
2023/01/10 11:41:21;;;;;;;29.75;6.15;;;6.70;99.90;;;;;;5054095;28;20048;-71
2023/01/10 11:44:37;;;;;;;12.82;3.50;;;6.70;99.90;;;;;;5046928;28;20067;-67
2023/01/10 11:47:19;;;;;;;20.45;5.78;;;6.70;99.90;;;;;;5056938;28;20052;-70
2023/01/10 11:49:47;;;;;;;21.20;5.00;;;6.70;99.90;;;;;;5033252;28;20047;-71
2023/01/10 11:52:34;;;;;;;21.80;5.22;;;6.70;99.90;;;;;;5019024;28;20033;-70
2023/01/10 11:55:01;;;;;;;28.33;7.60;;;6.70;99.90;;;;;;5052390;28;20588;-69
2023/01/10 11:57:41;;;;;;;22.92;7.10;;;6.70;99.90;;;;;;5052861;28;20080;-67
2023/01/10 12:00:09;;;;;;;25.90;6.93;;;6.60;99.90;;;;;;5020099;28;20044;-70
2023/01/10 12:02:52;;;;;;;24.17;6.57;;;6.60;99.90;;;;;;5034774;28;20469;-71
2023/01/10 12:05:21;;;;;;;22.60;5.80;;;6.60;99.90;;;;;;5053143;28;20044;-70
2023/01/10 12:08:06;;;;;;;28.02;6.28;;;6.60;99.90;;;;;;5034719;28;20552;-69
2023/01/10 12:10:33;;;;;;;11.88;4.97;;;6.60;99.90;;;;;;5034918;28;20045;-69
2023/01/10 12:13:19;;;;;;;27.58;9.23;;;6.60;99.90;;;;;;5034930;28;20416;-69
2023/01/10 12:15:45;;;;;;;26.83;6.75;;;6.70;99.90;;;;;;5041561;28;20045;-72
2023/01/10 12:18:18;;;;;;;13.15;3.70;;;6.60;99.90;;;;;;5057115;28;20083;-69
2023/01/10 12:20:48;;;;;;;20.58;5.63;;;6.60;99.90;;;;;;5036111;28;20067;-73
2023/01/10 12:23:25;;;;;;;20.55;6.38;;;6.60;99.90;;;;;;5047430;28;20040;-69
2023/01/10 12:25:52;;;;;;;22.10;4.45;;;6.60;99.90;;;;;;5017982;28;20032;-68
2023/01/10 12:28:32;;;;;;;22.92;6.65;;;6.70;99.90;;;;;;5017614;28;20045;-70
2023/01/10 12:30:59;;;;;;;16.55;5.45;;;6.60;99.90;;;;;;5043059;28;20036;-67
2023/01/10 12:33:49;;;;;;;21.70;6.70;;;6.60;99.90;;;;;;5041593;28;20050;-69
2023/01/10 12:36:22;;;;;;;13.77;4.53;;;6.60;99.90;;;;;;5024751;28;20040;-72
2023/01/10 12:39:29;;;;;;;25.08;6.10;;;6.60;99.90;;;;;;5051566;28;20040;-70
2023/01/10 12:45:18;;;;;;;21.73;5.80;;;6.60;99.90;;;;;;5048954;28;20131;-72
2023/01/10 12:48:08;;;;;;;18.63;4.13;;;6.60;99.90;;;;;;5035549;28;20509;-69
2023/01/10 12:50:42;;;;;;;18.42;4.30;;;6.70;99.90;;;;;;5023078;28;20037;-72
2023/01/10 12:53:15;;;;;;;20.77;6.97;;;6.60;99.90;;;;;;5024011;28;20080;-69
2023/01/10 12:55:44;;;;;;;17.98;4.25;;;6.70;99.90;;;;;;5013980;28;20393;-69
2023/01/10 12:58:26;;;;;;;8.52;2.75;;;6.70;99.90;;;;;;5051055;28;20040;-68
2023/01/10 13:00:59;;;;;;;14.85;4.78;;;6.60;99.90;;;;;;5029417;28;20041;-74
2023/01/10 13:03:37;;;;;;;21.60;6.55;;;6.60;99.90;;;;;;5024281;28;20129;-73
2023/01/10 13:06:03;;;;;;;17.52;5.60;;;6.60;99.90;;;;;;5030651;28;20371;-67
2023/01/10 13:08:39;;;;;;;17.23;5.13;;;6.60;99.90;;;;;;5047537;28;20045;-76
2023/01/10 13:11:16;;;;;;;23.52;6.18;;;6.60;99.90;;;;;;5032964;28;20111;-73
2023/01/10 13:13:57;;;;;;;22.85;6.15;;;6.60;99.90;;;;;;5028639;28;20069;-74
2023/01/10 13:16:37;;;;;;;24.63;5.82;;;6.60;99.90;;;;;;5025994;28;20143;-73
2023/01/10 13:19:20;;;;;;;19.80;5.43;;;6.50;99.90;;;;;;5046445;28;20033;-71
2023/01/10 13:21:53;;;;;;;13.73;3.70;;;6.50;99.90;;;;;;5048955;28;20120;-66
2023/01/10 13:24:27;;;;;;;13.25;2.50;;;6.50;99.90;;;;;;5049207;28;20060;-73
2023/01/10 13:27:04;;;;;;;18.27;4.25;;;6.50;99.90;;;;;;5030895;28;20055;-72
2023/01/10 13:29:39;;;;;;;26.85;5.75;;;6.50;99.90;;;;;;5034817;28;20391;-69
2023/01/10 13:32:30;;;;;;;14.00;3.88;;;6.50;99.90;;;;;;5030032;28;20054;-69
2023/01/10 13:35:13;;;;;;;25.83;5.82;;;6.50;99.90;;;;;;5030565;28;20059;-68
2023/01/10 13:40:46;;;;;;;19.63;4.55;;;6.40;99.90;;;;;;5044858;27;20132;-68